sensor_id;sensor_type;location;lat;lon;timestamp;pressure;altitude;pressure_sealevel;temperature
75431;BMP280;64127;51.488;5.462;2023-11-21T00:00:20;100881.72;;;11.00
75431;BMP280;64127;51.488;5.462;2023-11-21T00:02:52;100885.25;;;11.00
75431;BMP280;64127;51.488;5.462;2023-11-21T00:05:24;100881.72;;;11.00
75431;BMP280;64127;51.488;5.462;2023-11-21T00:07:56;100885.31;;;11.02
75431;BMP280;64127;51.488;5.462;2023-11-21T00:10:28;100882.69;;;11.02
75431;BMP280;64127;51.488;5.462;2023-11-21T00:13:00;100887.09;;;11.03
75431;BMP280;64127;51.488;5.462;2023-11-21T00:15:34;100887.16;;;11.04
75431;BMP280;64127;51.488;5.462;2023-11-21T00:18:06;100846.88;;;10.80
75431;BMP280;64127;51.488;5.462;2023-11-21T00:20:39;100895.84;;;11.03
75431;BMP280;64127;51.488;5.462;2023-11-21T00:23:11;100897.59;;;11.03
75431;BMP280;64127;51.488;5.462;2023-11-21T00:25:42;100890.63;;;11.03
75431;BMP280;64127;51.488;5.462;2023-11-21T00:28:15;100886.06;;;10.99
75431;BMP280;64127;51.488;5.462;2023-11-21T00:30:47;100893.19;;;11.02
75431;BMP280;64127;51.488;5.462;2023-11-21T00:33:19;100892.34;;;11.03
75431;BMP280;64127;51.488;5.462;2023-11-21T00:35:51;100890.56;;;11.02
75431;BMP280;64127;51.488;5.462;2023-11-21T00:38:23;100887.88;;;11.00
75431;BMP280;64127;51.488;5.462;2023-11-21T00:40:56;100886.97;;;11.00
75431;BMP280;64127;51.488;5.462;2023-11-21T00:43:28;100894.84;;;11.00
75431;BMP280;64127;51.488;5.462;2023-11-21T00:46:05;100897.41;;;10.98
75431;BMP280;64127;51.488;5.462;2023-11-21T00:48:39;100897.31;;;10.95
75431;BMP280;64127;51.488;5.462;2023-11-21T00:51:11;100903.38;;;10.94
75431;BMP280;64127;51.488;5.462;2023-11-21T00:53:43;100904.28;;;10.95
75431;BMP280;64127;51.488;5.462;2023-11-21T00:56:15;100900.66;;;10.93
75431;BMP280;64127;51.488;5.462;2023-11-21T00:58:47;100904.03;;;10.89
75431;BMP280;64127;51.488;5.462;2023-11-21T01:01:22;100907.47;;;10.88
75431;BMP280;64127;51.488;5.462;2023-11-21T01:03:55;100913.50;;;10.85
75431;BMP280;64127;51.488;5.462;2023-11-21T01:06:27;100916.94;;;10.84
75431;BMP280;64127;51.488;5.462;2023-11-21T01:08:59;100920.22;;;10.79
75431;BMP280;64127;51.488;5.462;2023-11-21T01:11:31;100925.47;;;10.79
75431;BMP280;64127;51.488;5.462;2023-11-21T01:14:04;100925.25;;;10.74
75431;BMP280;64127;51.488;5.462;2023-11-21T01:16:38;100927.69;;;10.69
75431;BMP280;64127;51.488;5.462;2023-11-21T01:19:10;100929.28;;;10.66
75431;BMP280;64127;51.488;5.462;2023-11-21T01:21:42;100924.00;;;10.64
75431;BMP280;64127;51.488;5.462;2023-11-21T01:24:14;100925.25;;;10.53
75431;BMP280;64127;51.488;5.462;2023-11-21T01:26:46;100932.41;;;10.57
75431;BMP280;64127;51.488;5.462;2023-11-21T01:29:18;100938.41;;;10.55
75431;BMP280;64127;51.488;5.462;2023-11-21T01:31:50;100933.69;;;10.46
75431;BMP280;64127;51.488;5.462;2023-11-21T01:34:23;100944.28;;;10.49
75431;BMP280;64127;51.488;5.462;2023-11-21T01:36:55;100943.34;;;10.47
75431;BMP280;64127;51.488;5.462;2023-11-21T01:39:28;100950.31;;;10.47
75431;BMP280;64127;51.488;5.462;2023-11-21T01:42:00;100957.19;;;10.45
75431;BMP280;64127;51.488;5.462;2023-11-21T01:44:32;100941.28;;;10.40
75431;BMP280;64127;51.488;5.462;2023-11-21T01:47:05;100954.44;;;10.42
75431;BMP280;64127;51.488;5.462;2023-11-21T01:49:37;100963.97;;;10.40
75431;BMP280;64127;51.488;5.462;2023-11-21T01:52:10;100941.78;;;10.32
75431;BMP280;64127;51.488;5.462;2023-11-21T01:54:43;100961.25;;;10.38
75431;BMP280;64127;51.488;5.462;2023-11-21T01:57:15;100949.03;;;10.37
75431;BMP280;64127;51.488;5.462;2023-11-21T01:59:49;100948.81;;;10.33
75431;BMP280;64127;51.488;5.462;2023-11-21T02:02:22;100956.78;;;10.36
75431;BMP280;64127;51.488;5.462;2023-11-21T02:04:54;100955.91;;;10.35
75431;BMP280;64127;51.488;5.462;2023-11-21T02:07:26;100956.88;;;10.37
75431;BMP280;64127;51.488;5.462;2023-11-21T02:09:59;100967.97;;;10.32
75431;BMP280;64127;51.488;5.462;2023-11-21T02:12:31;100959.94;;;10.27
75431;BMP280;64127;51.488;5.462;2023-11-21T02:15:03;100951.50;;;10.15
75431;BMP280;64127;51.488;5.462;2023-11-21T02:17:48;100959.38;;;10.15
75431;BMP280;64127;51.488;5.462;2023-11-21T02:20:24;100969.75;;;10.13
75431;BMP280;64127;51.488;5.462;2023-11-21T02:22:58;100975.72;;;10.11
75431;BMP280;64127;51.488;5.462;2023-11-21T02:25:32;100982.50;;;10.06
75431;BMP280;64127;51.488;5.462;2023-11-21T02:28:06;100978.91;;;10.04
75431;BMP280;64127;51.488;5.462;2023-11-21T02:30:38;100977.13;;;10.03
75431;BMP280;64127;51.488;5.462;2023-11-21T02:33:11;100983.19;;;10.02
75431;BMP280;64127;51.488;5.462;2023-11-21T02:35:44;100990.22;;;10.03
75431;BMP280;64127;51.488;5.462;2023-11-21T02:38:16;100998.88;;;10.02
75431;BMP280;64127;51.488;5.462;2023-11-21T02:40:48;100995.31;;;10.00
75431;BMP280;64127;51.488;5.462;2023-11-21T02:43:21;101006.59;;;9.99
75431;BMP280;64127;51.488;5.462;2023-11-21T02:45:53;101008.19;;;9.95
75431;BMP280;64127;51.488;5.462;2023-11-21T02:48:25;101007.97;;;9.91
75431;BMP280;64127;51.488;5.462;2023-11-21T02:50:57;101001.81;;;9.90
75431;BMP280;64127;51.488;5.462;2023-11-21T02:53:29;100992.81;;;9.84
75431;BMP280;64127;51.488;5.462;2023-11-21T02:56:01;101001.00;;;9.91
75431;BMP280;64127;51.488;5.462;2023-11-21T02:58:33;101006.34;;;9.93
75431;BMP280;64127;51.488;5.462;2023-11-21T03:01:05;101002.72;;;9.91
75431;BMP280;64127;51.488;5.462;2023-11-21T03:03:38;101003.72;;;9.93
75431;BMP280;64127;51.488;5.462;2023-11-21T03:06:12;100997.63;;;9.94
75431;BMP280;64127;51.488;5.462;2023-11-21T03:08:44;100988.69;;;9.89
75431;BMP280;64127;51.488;5.462;2023-11-21T03:11:16;100999.44;;;9.95
75431;BMP280;64127;51.488;5.462;2023-11-21T03:13:48;100998.47;;;9.93
75431;BMP280;64127;51.488;5.462;2023-11-21T03:16:20;101002.88;;;9.94
75431;BMP280;64127;51.488;5.462;2023-11-21T03:18:52;101007.00;;;9.89
75431;BMP280;64127;51.488;5.462;2023-11-21T03:21:25;100996.28;;;9.83
75431;BMP280;64127;51.488;5.462;2023-11-21T03:23:58;101003.53;;;9.90
75431;BMP280;64127;51.488;5.462;2023-11-21T03:26:31;101002.06;;;9.95
75431;BMP280;64127;51.488;5.462;2023-11-21T03:29:03;101008.25;;;9.97
75431;BMP280;64127;51.488;5.462;2023-11-21T03:31:36;101016.44;;;10.04
75431;BMP280;64127;51.488;5.462;2023-11-21T03:34:15;101013.78;;;10.03
75431;BMP280;64127;51.488;5.462;2023-11-21T03:36:47;100987.66;;;9.85
75431;BMP280;64127;51.488;5.462;2023-11-21T03:39:20;101014.38;;;9.97
75431;BMP280;64127;51.488;5.462;2023-11-21T03:41:53;101016.25;;;10.00
75431;BMP280;64127;51.488;5.462;2023-11-21T03:44:25;101001.91;;;9.92
75431;BMP280;64127;51.488;5.462;2023-11-21T03:46:57;101022.31;;;9.99
75431;BMP280;64127;51.488;5.462;2023-11-21T03:49:29;101016.09;;;9.97
75431;BMP280;64127;51.488;5.462;2023-11-21T03:52:01;101019.63;;;9.97
75431;BMP280;64127;51.488;5.462;2023-11-21T03:54:35;101016.09;;;9.97
75431;BMP280;64127;51.488;5.462;2023-11-21T03:57:08;101022.31;;;9.99
75431;BMP280;64127;51.488;5.462;2023-11-21T03:59:41;101026.50;;;9.95
75431;BMP280;64127;51.488;5.462;2023-11-21T04:02:14;101030.16;;;9.99
75431;BMP280;64127;51.488;5.462;2023-11-21T04:04:46;101031.75;;;9.95
75431;BMP280;64127;51.488;5.462;2023-11-21T04:07:19;101037.75;;;9.93
75431;BMP280;64127;51.488;5.462;2023-11-21T04:09:51;101036.84;;;9.92
75431;BMP280;64127;51.488;5.462;2023-11-21T04:12:23;101038.41;;;9.89
75431;BMP280;64127;51.488;5.462;2023-11-21T04:14:55;101051.22;;;9.83
75431;BMP280;64127;51.488;5.462;2023-11-21T04:17:27;101056.47;;;9.83
75431;BMP280;64127;51.488;5.462;2023-11-21T04:19:59;101056.28;;;9.80
75431;BMP280;64127;51.488;5.462;2023-11-21T04:22:31;101051.81;;;9.77
75431;BMP280;64127;51.488;5.462;2023-11-21T04:25:03;101060.72;;;9.81
75431;BMP280;64127;51.488;5.462;2023-11-21T04:27:35;101066.16;;;9.85
75431;BMP280;64127;51.488;5.462;2023-11-21T04:30:08;101071.47;;;9.87
75431;BMP280;64127;51.488;5.462;2023-11-21T04:32:41;101047.34;;;9.75
75431;BMP280;64127;51.488;5.462;2023-11-21T04:35:14;101075.88;;;9.88
75431;BMP280;64127;51.488;5.462;2023-11-21T04:37:46;101080.16;;;9.86
75431;BMP280;64127;51.488;5.462;2023-11-21T04:40:19;101079.16;;;9.84
75431;BMP280;64127;51.488;5.462;2023-11-21T04:42:52;101085.25;;;9.83
75431;BMP280;64127;51.488;5.462;2023-11-21T04:45:25;101083.44;;;9.82
75431;BMP280;64127;51.488;5.462;2023-11-21T04:47:57;101087.69;;;9.80
75431;BMP280;64127;51.488;5.462;2023-11-21T04:50:29;101063.47;;;9.66
75431;BMP280;64127;51.488;5.462;2023-11-21T04:53:01;101096.38;;;9.79
75431;BMP280;64127;51.488;5.462;2023-11-21T04:55:33;101097.13;;;9.76
75431;BMP280;64127;51.488;5.462;2023-11-21T04:58:05;101101.31;;;9.73
75431;BMP280;64127;51.488;5.462;2023-11-21T05:00:37;101110.16;;;9.75
75431;BMP280;64127;51.488;5.462;2023-11-21T05:03:09;101103.25;;;9.77
75431;BMP280;64127;51.488;5.462;2023-11-21T05:05:42;101112.16;;;9.80
75431;BMP280;64127;51.488;5.462;2023-11-21T05:08:14;101115.00;;;9.85
75431;BMP280;64127;51.488;5.462;2023-11-21T05:10:46;101094.50;;;9.76
75431;BMP280;64127;51.488;5.462;2023-11-21T05:13:18;101117.09;;;9.92
75431;BMP280;64127;51.488;5.462;2023-11-21T05:15:50;101111.19;;;9.96
75431;BMP280;64127;51.488;5.462;2023-11-21T05:18:22;101099.81;;;9.95
75431;BMP280;64127;51.488;5.462;2023-11-21T05:20:55;101100.84;;;9.99
75431;BMP280;64127;51.488;5.462;2023-11-21T05:23:27;101100.72;;;9.96
75431;BMP280;64127;51.488;5.462;2023-11-21T05:25:59;101107.03;;;10.01
75431;BMP280;64127;51.488;5.462;2023-11-21T05:28:32;101109.94;;;10.07
75431;BMP280;64127;51.488;5.462;2023-11-21T05:31:04;101115.19;;;10.07
75431;BMP280;64127;51.488;5.462;2023-11-21T05:33:47;101133.59;;;10.08
75431;BMP280;64127;51.488;5.462;2023-11-21T05:36:19;101136.31;;;10.10
75431;BMP280;64127;51.488;5.462;2023-11-21T05:38:51;101145.13;;;10.12
75431;BMP280;64127;51.488;5.462;2023-11-21T05:41:23;101143.31;;;10.11
75431;BMP280;64127;51.488;5.462;2023-11-21T05:43:55;101142.66;;;10.15
75431;BMP280;64127;51.488;5.462;2023-11-21T05:46:27;101141.84;;;10.16
75431;BMP280;64127;51.488;5.462;2023-11-21T05:48:59;101143.47;;;10.14
75431;BMP280;64127;51.488;5.462;2023-11-21T05:51:31;101155.75;;;10.15
75431;BMP280;64127;51.488;5.462;2023-11-21T05:54:04;101157.56;;;10.16
75431;BMP280;64127;51.488;5.462;2023-11-21T05:56:36;101155.75;;;10.15
75431;BMP280;64127;51.488;5.462;2023-11-21T05:59:08;101152.00;;;10.10
75431;BMP280;64127;51.488;5.462;2023-11-21T06:01:40;101152.75;;;10.07
75431;BMP280;64127;51.488;5.462;2023-11-21T06:04:13;101160.53;;;10.06
75431;BMP280;64127;51.488;5.462;2023-11-21T06:06:45;101166.44;;;10.02
75431;BMP280;64127;51.488;5.462;2023-11-21T06:09:17;101163.84;;;10.02
75431;BMP280;64127;51.488;5.462;2023-11-21T06:11:49;101171.59;;;10.00
75431;BMP280;64127;51.488;5.462;2023-11-21T06:14:21;101173.41;;;10.01
75431;BMP280;64127;51.488;5.462;2023-11-21T06:16:53;101153.44;;;9.86
75431;BMP280;64127;51.488;5.462;2023-11-21T06:19:27;101164.50;;;9.98
75431;BMP280;64127;51.488;5.462;2023-11-21T06:21:59;101178.72;;;10.03
75431;BMP280;64127;51.488;5.462;2023-11-21T06:24:33;101186.72;;;10.06
75431;BMP280;64127;51.488;5.462;2023-11-21T06:27:05;101189.63;;;10.12
75431;BMP280;64127;51.488;5.462;2023-11-21T06:29:37;101188.81;;;10.13
75431;BMP280;64127;51.488;5.462;2023-11-21T06:32:10;101191.44;;;10.13
75431;BMP280;64127;51.488;5.462;2023-11-21T06:34:42;101187.00;;;10.12
75431;BMP280;64127;51.488;5.462;2023-11-21T06:37:15;101199.47;;;10.16
75431;BMP280;64127;51.488;5.462;2023-11-21T06:39:47;101195.78;;;10.12
75431;BMP280;64127;51.488;5.462;2023-11-21T06:42:19;101199.19;;;10.11
75431;BMP280;64127;51.488;5.462;2023-11-21T06:44:52;101202.72;;;10.12
75431;BMP280;64127;51.488;5.462;2023-11-21T06:47:25;101198.31;;;10.11
75431;BMP280;64127;51.488;5.462;2023-11-21T06:49:59;101207.97;;;10.12
75431;BMP280;64127;51.488;5.462;2023-11-21T06:52:32;101202.44;;;10.06
75431;BMP280;64127;51.488;5.462;2023-11-21T06:55:05;101205.09;;;10.07
75431;BMP280;64127;51.488;5.462;2023-11-21T06:57:39;101210.50;;;10.10
75431;BMP280;64127;51.488;5.462;2023-11-21T07:00:13;101210.44;;;10.09
75431;BMP280;64127;51.488;5.462;2023-11-21T07:02:45;101218.44;;;10.12
75431;BMP280;64127;51.488;5.462;2023-11-21T07:05:17;101218.28;;;10.09
75431;BMP280;64127;51.488;5.462;2023-11-21T07:07:53;101227.47;;;10.17
75431;BMP280;64127;51.488;5.462;2023-11-21T07:10:26;101229.53;;;10.24
75431;BMP280;64127;51.488;5.462;2023-11-21T07:12:58;101233.81;;;10.22
75431;BMP280;64127;51.488;5.462;2023-11-21T07:15:30;101226.56;;;10.16
75431;BMP280;64127;51.488;5.462;2023-11-21T07:18:02;101236.28;;;10.19
75431;BMP280;64127;51.488;5.462;2023-11-21T07:20:34;101232.84;;;10.20
75431;BMP280;64127;51.488;5.462;2023-11-21T07:23:06;101257.66;;;10.28
75431;BMP280;64127;51.488;5.462;2023-11-21T07:25:38;101254.31;;;10.31
75431;BMP280;64127;51.488;5.462;2023-11-21T07:28:10;101264.81;;;10.31
75431;BMP280;64127;51.488;5.462;2023-11-21T07:30:42;101270.84;;;10.30
75431;BMP280;64127;51.488;5.462;2023-11-21T07:33:14;101277.16;;;10.33
75431;BMP280;64127;51.488;5.462;2023-11-21T07:35:46;101281.72;;;10.37
75431;BMP280;64127;51.488;5.462;2023-11-21T07:38:18;101282.69;;;10.39
75431;BMP280;64127;51.488;5.462;2023-11-21T07:40:50;101287.16;;;10.42
75431;BMP280;64127;51.488;5.462;2023-11-21T07:43:22;101284.47;;;10.40
75431;BMP280;64127;51.488;5.462;2023-11-21T07:45:54;101290.69;;;10.42
75431;BMP280;64127;51.488;5.462;2023-11-21T07:48:26;101294.34;;;10.46
75431;BMP280;64127;51.488;5.462;2023-11-21T07:51:00;101294.34;;;10.46
75431;BMP280;64127;51.488;5.462;2023-11-21T07:53:32;101292.88;;;10.51
75431;BMP280;64127;51.488;5.462;2023-11-21T07:56:09;101288.34;;;10.48
75431;BMP280;64127;51.488;5.462;2023-11-21T07:58:41;101301.84;;;10.56
75431;BMP280;64127;51.488;5.462;2023-11-21T08:01:13;101300.94;;;10.55
75431;BMP280;64127;51.488;5.462;2023-11-21T08:03:45;101290.44;;;10.55
75431;BMP280;64127;51.488;5.462;2023-11-21T08:06:17;101292.78;;;10.49
75431;BMP280;64127;51.488;5.462;2023-11-21T08:08:49;101304.22;;;10.51
75431;BMP280;64127;51.488;5.462;2023-11-21T08:11:21;101305.25;;;10.55
75431;BMP280;64127;51.488;5.462;2023-11-21T08:13:54;101311.72;;;10.61
75431;BMP280;64127;51.488;5.462;2023-11-21T08:16:26;101312.69;;;10.63
75431;BMP280;64127;51.488;5.462;2023-11-21T08:18:59;101311.03;;;10.65
75431;BMP280;64127;51.488;5.462;2023-11-21T08:21:31;101307.34;;;10.62
75431;BMP280;64127;51.488;5.462;2023-11-21T08:24:04;101324.28;;;10.68
75431;BMP280;64127;51.488;5.462;2023-11-21T08:26:39;101322.56;;;10.69
75431;BMP280;64127;51.488;5.462;2023-11-21T08:29:11;101326.84;;;10.67
75431;BMP280;64127;51.488;5.462;2023-11-21T08:31:44;101325.88;;;10.65
75431;BMP280;64127;51.488;5.462;2023-11-21T08:34:18;101331.94;;;10.64
75431;BMP280;64127;51.488;5.462;2023-11-21T08:36:50;101333.13;;;10.71
75431;BMP280;64127;51.488;5.462;2023-11-21T08:39:22;101329.53;;;10.68
75431;BMP280;64127;51.488;5.462;2023-11-21T08:41:57;101350.97;;;10.78
75431;BMP280;64127;51.488;5.462;2023-11-21T08:44:29;101344.16;;;10.81
75431;BMP280;64127;51.488;5.462;2023-11-21T08:47:02;101352.00;;;10.81
75431;BMP280;64127;51.488;5.462;2023-11-21T08:49:39;101356.56;;;10.85
75431;BMP280;64127;51.488;5.462;2023-11-21T08:52:12;101357.63;;;10.89
75431;BMP280;64127;51.488;5.462;2023-11-21T08:54:44;101365.69;;;10.93
75431;BMP280;64127;51.488;5.462;2023-11-21T08:57:17;101368.41;;;10.95
75431;BMP280;64127;51.488;5.462;2023-11-21T08:59:49;101363.22;;;10.96
75431;BMP280;64127;51.488;5.462;2023-11-21T09:02:27;101373.69;;;10.96
75431;BMP280;64127;51.488;5.462;2023-11-21T09:04:59;101357.69;;;10.90
75431;BMP280;64127;51.488;5.462;2023-11-21T09:07:31;101365.03;;;10.97
75431;BMP280;64127;51.488;5.462;2023-11-21T09:10:04;101357.16;;;10.97
75431;BMP280;64127;51.488;5.462;2023-11-21T09:12:39;101371.41;;;11.02
75431;BMP280;64127;51.488;5.462;2023-11-21T09:15:11;101367.19;;;11.06
75431;BMP280;64127;51.488;5.462;2023-11-21T09:17:43;101363.44;;;11.01
75431;BMP280;64127;51.488;5.462;2023-11-21T09:20:16;101368.16;;;11.08
75431;BMP280;64127;51.488;5.462;2023-11-21T09:22:49;101371.69;;;11.08
75431;BMP280;64127;51.488;5.462;2023-11-21T09:25:21;101378.72;;;11.09
75431;BMP280;64127;51.488;5.462;2023-11-21T09:27:54;101374.31;;;11.08
75431;BMP280;64127;51.488;5.462;2023-11-21T09:30:26;101399.09;;;11.15
75431;BMP280;64127;51.488;5.462;2023-11-21T09:32:58;101407.25;;;11.21
75431;BMP280;64127;51.488;5.462;2023-11-21T09:35:31;101400.38;;;11.23
75431;BMP280;64127;51.488;5.462;2023-11-21T09:38:03;101411.00;;;11.26
75431;BMP280;64127;51.488;5.462;2023-11-21T09:40:42;101416.41;;;11.29
75431;BMP280;64127;51.488;5.462;2023-11-21T09:43:17;101412.94;;;11.30
75431;BMP280;64127;51.488;5.462;2023-11-21T09:46:11;101421.50;;;11.26
75431;BMP280;64127;51.488;5.462;2023-11-21T09:48:51;101429.56;;;11.31
75431;BMP280;64127;51.488;5.462;2023-11-21T09:51:27;101435.88;;;11.34
75431;BMP280;64127;51.488;5.462;2023-11-21T09:54:03;101437.81;;;11.38
75431;BMP280;64127;51.488;5.462;2023-11-21T09:56:41;101431.63;;;11.36
75431;BMP280;64127;51.488;5.462;2023-11-21T09:59:15;101443.22;;;11.41
75431;BMP280;64127;51.488;5.462;2023-11-21T10:01:47;101418.94;;;11.28
75431;BMP280;64127;51.488;5.462;2023-11-21T10:04:19;101441.72;;;11.46
75431;BMP280;64127;51.488;5.462;2023-11-21T10:06:53;101449.78;;;11.51
75431;BMP280;64127;51.488;5.462;2023-11-21T10:09:26;101452.78;;;11.58
75431;BMP280;64127;51.488;5.462;2023-11-21T10:11:59;101443.13;;;11.57
75431;BMP280;64127;51.488;5.462;2023-11-21T10:14:34;101448.66;;;11.63
75431;BMP280;64127;51.488;5.462;2023-11-21T10:17:14;101449.75;;;11.68
75431;BMP280;64127;51.488;5.462;2023-11-21T10:19:48;101462.22;;;11.73
75431;BMP280;64127;51.488;5.462;2023-11-21T10:22:21;101453.44;;;11.72
75431;BMP280;64127;51.488;5.462;2023-11-21T10:24:55;101461.59;;;11.78
75431;BMP280;64127;51.488;5.462;2023-11-21T10:27:27;101463.41;;;11.79
75431;BMP280;64127;51.488;5.462;2023-11-21T10:30:03;101469.66;;;11.81
75431;BMP280;64127;51.488;5.462;2023-11-21T10:32:36;101469.72;;;11.83
75431;BMP280;64127;51.488;5.462;2023-11-21T10:35:08;101459.97;;;11.80
75431;BMP280;64127;51.488;5.462;2023-11-21T10:37:44;101466.50;;;11.88
75431;BMP280;64127;51.488;5.462;2023-11-21T10:40:16;101470.13;;;11.92
75431;BMP280;64127;51.488;5.462;2023-11-21T10:42:48;101465.03;;;11.95
75431;BMP280;64127;51.488;5.462;2023-11-21T10:45:20;101448.16;;;11.90
75431;BMP280;64127;51.488;5.462;2023-11-21T10:47:54;101467.13;;;12.02
75431;BMP280;64127;51.488;5.462;2023-11-21T10:50:26;101475.13;;;12.05
75431;BMP280;64127;51.488;5.462;2023-11-21T10:52:58;101479.53;;;12.06
75431;BMP280;64127;51.488;5.462;2023-11-21T10:55:32;101481.44;;;12.08
75431;BMP280;64127;51.488;5.462;2023-11-21T10:58:05;101473.41;;;12.05
75431;BMP280;64127;51.488;5.462;2023-11-21T11:00:38;101475.25;;;12.08
75431;BMP280;64127;51.488;5.462;2023-11-21T11:03:12;101471.59;;;12.04
75431;BMP280;64127;51.488;5.462;2023-11-21T11:05:50;101481.47;;;12.10
75431;BMP280;64127;51.488;5.462;2023-11-21T11:08:26;101479.84;;;12.12
75431;BMP280;64127;51.488;5.462;2023-11-21T11:10:59;101484.38;;;12.16
75431;BMP280;64127;51.488;5.462;2023-11-21T11:13:32;101487.16;;;12.19
75431;BMP280;64127;51.488;5.462;2023-11-21T11:16:05;101484.59;;;12.20
75431;BMP280;64127;51.488;5.462;2023-11-21T11:18:39;101488.25;;;12.24
75431;BMP280;64127;51.488;5.462;2023-11-21T11:28:10;101504.09;;;12.26
75431;BMP280;64127;51.488;5.462;2023-11-21T11:37:06;101510.09;;;12.23
75431;BMP280;64127;51.488;5.462;2023-11-21T11:39:42;101516.34;;;12.25
75431;BMP280;64127;51.488;5.462;2023-11-21T11:42:18;101509.53;;;12.30
75431;BMP280;64127;51.488;5.462;2023-11-21T11:44:52;101508.81;;;12.33
75431;BMP280;64127;51.488;5.462;2023-11-21T11:47:31;101516.75;;;12.34
75431;BMP280;64127;51.488;5.462;2023-11-21T11:50:12;101510.66;;;12.35
75431;BMP280;64127;51.488;5.462;2023-11-21T11:52:48;101518.81;;;12.41
75431;BMP280;64127;51.488;5.462;2023-11-21T11:55:23;101527.66;;;12.43
75431;BMP280;64127;51.488;5.462;2023-11-21T11:57:56;101535.53;;;12.43
75431;BMP280;64127;51.488;5.462;2023-11-21T12:03:04;101542.75;;;12.47
75431;BMP280;64127;51.488;5.462;2023-11-21T12:05:37;101557.84;;;12.51
75431;BMP280;64127;51.488;5.462;2023-11-21T12:08:16;101558.81;;;12.53
75431;BMP280;64127;51.488;5.462;2023-11-21T12:10:48;101562.47;;;12.57
75431;BMP280;64127;51.488;5.462;2023-11-21T12:13:20;101559.78;;;12.55
75431;BMP280;64127;51.488;5.462;2023-11-21T12:15:55;101569.19;;;12.50
75431;BMP280;64127;51.488;5.462;2023-11-21T12:18:27;101576.34;;;12.53
75431;BMP280;64127;51.488;5.462;2023-11-21T12:20:59;101570.09;;;12.51
75431;BMP280;64127;51.488;5.462;2023-11-21T12:23:31;101570.84;;;12.48
75431;BMP280;64127;51.488;5.462;2023-11-21T12:26:04;101576.03;;;12.47
75431;BMP280;64127;51.488;5.462;2023-11-21T12:28:36;101572.53;;;12.46
75431;BMP280;64127;51.488;5.462;2023-11-21T12:31:08;101579.44;;;12.44
75431;BMP280;64127;51.488;5.462;2023-11-21T12:33:52;101579.28;;;12.41
75431;BMP280;64127;51.488;5.462;2023-11-21T12:36:24;101577.63;;;12.43
75431;BMP280;64127;51.488;5.462;2023-11-21T12:38:57;101583.03;;;12.46
75431;BMP280;64127;51.488;5.462;2023-11-21T12:41:30;101593.56;;;12.46
75431;BMP280;64127;51.488;5.462;2023-11-21T12:44:02;101585.72;;;12.48
75431;BMP280;64127;51.488;5.462;2023-11-21T12:46:35;101595.47;;;12.50
75431;BMP280;64127;51.488;5.462;2023-11-21T12:49:07;101584.09;;;12.50
75431;BMP280;64127;51.488;5.462;2023-11-21T12:51:39;101595.47;;;12.50
75431;BMP280;64127;51.488;5.462;2023-11-21T12:54:12;101600.59;;;12.47
75431;BMP280;64127;51.488;5.462;2023-11-21T12:56:49;101604.94;;;12.47
75431;BMP280;64127;51.488;5.462;2023-11-21T12:59:21;101608.44;;;12.46
75431;BMP280;64127;51.488;5.462;2023-11-21T13:01:54;101596.09;;;12.45
75431;BMP280;64127;51.488;5.462;2023-11-21T13:04:32;101594.97;;;12.40
75431;BMP280;64127;51.488;5.462;2023-11-21T13:07:06;101588.72;;;12.36
75431;BMP280;64127;51.488;5.462;2023-11-21T13:09:46;101594.03;;;12.38
75431;BMP280;64127;51.488;5.462;2023-11-21T13:12:24;101603.78;;;12.40
75431;BMP280;64127;51.488;5.462;2023-11-21T13:14:56;101602.88;;;12.40
75431;BMP280;64127;51.488;5.462;2023-11-21T13:17:35;101604.69;;;12.41
75431;BMP280;64127;51.488;5.462;2023-11-21T13:20:07;101603.91;;;12.43
75431;BMP280;64127;51.488;5.462;2023-11-21T13:22:55;101614.41;;;12.43
75431;BMP280;64127;51.488;5.462;2023-11-21T13:25:38;101608.97;;;12.39
75431;BMP280;64127;51.488;5.462;2023-11-21T13:28:13;101609.16;;;12.43
75431;BMP280;64127;51.488;5.462;2023-11-21T13:30:48;101624.41;;;12.50
75431;BMP280;64127;51.488;5.462;2023-11-21T13:33:20;101619.84;;;12.46
75431;BMP280;64127;51.488;5.462;2023-11-21T13:35:59;101625.97;;;12.47
75431;BMP280;64127;51.488;5.462;2023-11-21T13:38:33;101634.72;;;12.46
75431;BMP280;64127;51.488;5.462;2023-11-21T13:41:07;101632.16;;;12.47
75431;BMP280;64127;51.488;5.462;2023-11-21T13:43:40;101627.66;;;12.45
75431;BMP280;64127;51.488;5.462;2023-11-21T13:46:16;101636.66;;;12.50
75431;BMP280;64127;51.488;5.462;2023-11-21T13:48:54;101636.44;;;12.45
75431;BMP280;64127;51.488;5.462;2023-11-21T13:51:28;101640.88;;;12.46
75431;BMP280;64127;51.488;5.462;2023-11-21T13:54:11;101647.78;;;12.44
75431;BMP280;64127;51.488;5.462;2023-11-21T13:56:43;101645.97;;;12.43
75431;BMP280;64127;51.488;5.462;2023-11-21T13:59:17;101625.16;;;12.29
75431;BMP280;64127;51.488;5.462;2023-11-21T14:01:57;101651.22;;;12.43
75431;BMP280;64127;51.488;5.462;2023-11-21T14:04:32;101669.50;;;12.40
75431;BMP280;64127;51.488;5.462;2023-11-21T14:07:04;101670.34;;;12.39
75431;BMP280;64127;51.488;5.462;2023-11-21T14:09:54;101666.72;;;12.37
75431;BMP280;64127;51.488;5.462;2023-11-21T14:12:26;101669.22;;;12.34
75431;BMP280;64127;51.488;5.462;2023-11-21T14:15:00;101676.28;;;12.35
75431;BMP280;64127;51.488;5.462;2023-11-21T14:17:35;101684.03;;;12.32
75431;BMP280;64127;51.488;5.462;2023-11-21T14:20:10;101690.19;;;12.33
75431;BMP280;64127;51.488;5.462;2023-11-21T14:22:48;101692.72;;;12.31
75431;BMP280;64127;51.488;5.462;2023-11-21T14:25:20;101695.59;;;12.36
75431;BMP280;64127;51.488;5.462;2023-11-21T14:27:54;101694.69;;;12.35
75431;BMP280;64127;51.488;5.462;2023-11-21T14:30:28;101701.75;;;12.36
75431;BMP280;64127;51.488;5.462;2023-11-21T14:33:05;101700.91;;;12.37
75431;BMP280;64127;51.488;5.462;2023-11-21T14:35:37;101701.03;;;12.40
75431;BMP280;64127;51.488;5.462;2023-11-21T14:38:10;101692.34;;;12.41
75431;BMP280;64127;51.488;5.462;2023-11-21T14:40:42;101716.44;;;12.50
75431;BMP280;64127;51.488;5.462;2023-11-21T14:43:14;101719.16;;;12.52
75431;BMP280;64127;51.488;5.462;2023-11-21T14:45:46;101695.72;;;12.39
75431;BMP280;64127;51.488;5.462;2023-11-21T14:48:18;101714.84;;;12.54